sensor_id;sensor_type;location;lat;lon;timestamp;pressure;altitude;pressure_sealevel;temperature;humidity
37298;BME280;30517;51.932;4.278;2023-02-02T00:02:09;102249.59;;;9.83;67.61
37298;BME280;30517;51.932;4.278;2023-02-02T00:04:50;102254.81;;;9.82;67.21
37298;BME280;30517;51.932;4.278;2023-02-02T00:07:31;102247.78;;;9.82;67.47
37298;BME280;30517;51.932;4.278;2023-02-02T00:10:11;102222.81;;;9.66;67.36
37298;BME280;30517;51.932;4.278;2023-02-02T00:12:52;102246.78;;;9.75;67.26
37298;BME280;30517;51.932;4.278;2023-02-02T00:15:37;102260.97;;;9.82;67.57
37298;BME280;30517;51.932;4.278;2023-02-02T00:18:18;102241.44;;;9.72;67.21
37298;BME280;30517;51.932;4.278;2023-02-02T00:20:59;102245.97;;;9.78;67.25
37298;BME280;30517;51.932;4.278;2023-02-02T00:23:40;102186.16;;;9.38;67.40
37298;BME280;30517;51.932;4.278;2023-02-02T00:26:21;102246.03;;;9.81;67.20
37298;BME280;30517;51.932;4.278;2023-02-02T00:29:03;102245.84;;;9.73;67.35
37298;BME280;30517;51.932;4.278;2023-02-02T00:31:44;102263.59;;;9.81;67.71
37298;BME280;30517;51.932;4.278;2023-02-02T00:34:27;102256.56;;;9.81;67.88
37298;BME280;30517;51.932;4.278;2023-02-02T00:37:08;102265.47;;;9.86;66.92
37298;BME280;30517;51.932;4.278;2023-02-02T00:39:49;102268.88;;;9.82;67.16
37298;BME280;30517;51.932;4.278;2023-02-02T00:42:30;102270.63;;;9.82;67.51
37298;BME280;30517;51.932;4.278;2023-02-02T00:45:12;102271.44;;;9.79;67.79
37298;BME280;30517;51.932;4.278;2023-02-02T00:47:56;102273.22;;;9.80;67.27
37298;BME280;30517;51.932;4.278;2023-02-02T00:50:37;102261.84;;;9.81;67.76
37298;BME280;30517;51.932;4.278;2023-02-02T00:53:18;102266.28;;;9.84;67.49
37298;BME280;30517;51.932;4.278;2023-02-02T00:55:58;102255.50;;;9.74;67.06
37298;BME280;30517;51.932;4.278;2023-02-02T00:58:39;102269.81;;;9.84;67.08
37298;BME280;30517;51.932;4.278;2023-02-02T01:01:21;102272.44;;;9.84;67.15
37298;BME280;30517;51.932;4.278;2023-02-02T01:04:02;102276.84;;;9.84;67.26
37298;BME280;30517;51.932;4.278;2023-02-02T01:06:42;102266.16;;;9.78;67.58
37298;BME280;30517;51.932;4.278;2023-02-02T01:09:23;102270.69;;;9.83;67.50
37298;BME280;30517;51.932;4.278;2023-02-02T01:12:04;102276.84;;;9.84;67.43
37298;BME280;30517;51.932;4.278;2023-02-02T01:14:45;102268.06;;;9.85;67.09
37298;BME280;30517;51.932;4.278;2023-02-02T01:17:26;102273.31;;;9.85;67.39
37298;BME280;30517;51.932;4.278;2023-02-02T01:20:10;102262.78;;;9.85;67.54
37298;BME280;30517;51.932;4.278;2023-02-02T01:22:55;102264.59;;;9.86;67.33
37298;BME280;30517;51.932;4.278;2023-02-02T01:25:35;102237.13;;;9.76;67.50
37298;BME280;30517;51.932;4.278;2023-02-02T01:28:17;102244.34;;;9.85;67.71
37298;BME280;30517;51.932;4.278;2023-02-02T01:31:05;102195.28;;;9.52;67.38
37298;BME280;30517;51.932;4.278;2023-02-02T01:33:47;102252.25;;;9.85;67.49
37298;BME280;30517;51.932;4.278;2023-02-02T01:36:28;102235.44;;;9.80;67.63
37298;BME280;30517;51.932;4.278;2023-02-02T01:39:09;102255.75;;;9.84;67.45
37298;BME280;30517;51.932;4.278;2023-02-02T01:41:50;102256.63;;;9.84;67.52
37298;BME280;30517;51.932;4.278;2023-02-02T01:45:00;102274.13;;;9.82;67.64
37298;BME280;30517;51.932;4.278;2023-02-02T01:47:46;102230.72;;;9.66;67.38
37298;BME280;30517;51.932;4.278;2023-02-02T01:50:32;102268.06;;;9.85;67.47
37298;BME280;30517;51.932;4.278;2023-02-02T01:53:14;102255.63;;;9.78;67.18
37298;BME280;30517;51.932;4.278;2023-02-02T01:56:00;102267.16;;;9.84;67.66
37298;BME280;30517;51.932;4.278;2023-02-02T01:58:43;102262.78;;;9.85;67.51
37298;BME280;30517;51.932;4.278;2023-02-02T02:01:25;102259.25;;;9.84;67.47
37298;BME280;30517;51.932;4.278;2023-02-02T02:04:06;102250.25;;;9.74;67.23
37298;BME280;30517;51.932;4.278;2023-02-02T02:06:47;102279.47;;;9.85;67.22
37298;BME280;30517;51.932;4.278;2023-02-02T02:09:30;102270.63;;;9.82;67.36
37298;BME280;30517;51.932;4.278;2023-02-02T02:12:12;102270.56;;;9.80;67.44
37298;BME280;30517;51.932;4.278;2023-02-02T02:14:54;102296.22;;;9.86;67.73
37298;BME280;30517;51.932;4.278;2023-02-02T02:21:03;102276.00;;;9.86;67.70
37298;BME280;30517;51.932;4.278;2023-02-02T02:24:18;102271.63;;;9.87;67.41
37298;BME280;30517;51.932;4.278;2023-02-02T02:27:44;102244.19;;;9.79;67.63
37298;BME280;30517;51.932;4.278;2023-02-02T02:34:08;102257.44;;;9.82;67.37
37298;BME280;30517;51.932;4.278;2023-02-02T02:37:02;102246.97;;;9.85;67.39
37298;BME280;30517;51.932;4.278;2023-02-02T02:39:57;102238.94;;;9.79;67.51
37298;BME280;30517;51.932;4.278;2023-02-02T02:42:45;102252.28;;;9.86;67.73
37298;BME280;30517;51.932;4.278;2023-02-02T02:45:28;102261.09;;;9.87;67.18
37298;BME280;30517;51.932;4.278;2023-02-02T02:48:09;102237.13;;;9.76;67.65
37298;BME280;30517;51.932;4.278;2023-02-02T02:50:50;102236.16;;;9.72;67.82
37298;BME280;30517;51.932;4.278;2023-02-02T02:53:32;102260.03;;;9.80;67.81
37298;BME280;30517;51.932;4.278;2023-02-02T03:08:14;102258.38;;;9.84;67.52
37298;BME280;30517;51.932;4.278;2023-02-02T03:10:57;102240.00;;;9.87;67.34
37298;BME280;30517;51.932;4.278;2023-02-02T03:13:40;102213.34;;;9.74;67.68
37298;BME280;30517;51.932;4.278;2023-02-02T03:16:21;102238.22;;;9.86;67.87
37298;BME280;30517;51.932;4.278;2023-02-02T03:19:03;102230.22;;;9.81;67.28
37298;BME280;30517;51.932;4.278;2023-02-02T03:21:44;102251.41;;;9.86;67.77
37298;BME280;30517;51.932;4.278;2023-02-02T03:24:24;102244.38;;;9.86;67.27
37298;BME280;30517;51.932;4.278;2023-02-02T03:27:05;102247.97;;;9.88;67.76
37298;BME280;30517;51.932;4.278;2023-02-02T03:29:46;102256.69;;;9.87;67.78
37298;BME280;30517;51.932;4.278;2023-02-02T03:32:27;102270.81;;;9.89;67.39
37298;BME280;30517;51.932;4.278;2023-02-02T03:35:08;102267.25;;;9.87;67.35
37298;BME280;30517;51.932;4.278;2023-02-02T03:37:49;102257.38;;;9.79;67.55
37298;BME280;30517;51.932;4.278;2023-02-02T03:40:30;102265.53;;;9.89;67.53
37298;BME280;30517;51.932;4.278;2023-02-02T03:43:10;102245.03;;;9.76;67.29
37298;BME280;30517;51.932;4.278;2023-02-02T03:45:58;102260.88;;;9.78;67.33
37298;BME280;30517;51.932;4.278;2023-02-02T03:48:40;102267.03;;;9.78;67.25
37298;BME280;30517;51.932;4.278;2023-02-02T03:51:21;102278.59;;;9.83;67.46
37298;BME280;30517;51.932;4.278;2023-02-02T03:54:01;102256.25;;;9.67;67.54
37298;BME280;30517;51.932;4.278;2023-02-02T03:56:42;102283.09;;;9.89;67.81
37298;BME280;30517;51.932;4.278;2023-02-02T03:59:23;102282.88;;;9.80;67.30
37298;BME280;30517;51.932;4.278;2023-02-02T04:02:04;102300.66;;;9.88;67.50
37298;BME280;30517;51.932;4.278;2023-02-02T04:04:44;102291.91;;;9.91;67.71
37298;BME280;30517;51.932;4.278;2023-02-02T04:07:28;102292.81;;;9.91;67.45
37298;BME280;30517;51.932;4.278;2023-02-02T04:10:10;102271.44;;;9.78;67.21
37298;BME280;30517;51.932;4.278;2023-02-02T04:12:50;102299.00;;;9.93;67.61
37298;BME280;30517;51.932;4.278;2023-02-02T04:15:31;102275.91;;;9.82;67.12
37298;BME280;30517;51.932;4.278;2023-02-02T04:18:12;102281.97;;;9.79;67.65
37298;BME280;30517;51.932;4.278;2023-02-02T04:21:00;102286.44;;;9.82;67.29
37298;BME280;30517;51.932;4.278;2023-02-02T04:23:41;102289.38;;;9.94;67.37
37298;BME280;30517;51.932;4.278;2023-02-02T04:26:22;102292.84;;;9.93;67.63
37298;BME280;30517;51.932;4.278;2023-02-02T04:29:07;102298.13;;;9.93;67.36
37298;BME280;30517;51.932;4.278;2023-02-02T04:31:48;102270.56;;;9.80;67.58
37298;BME280;30517;51.932;4.278;2023-02-02T04:34:29;102295.47;;;9.91;67.50
37298;BME280;30517;51.932;4.278;2023-02-02T04:37:11;102291.00;;;9.89;67.84
37298;BME280;30517;51.932;4.278;2023-02-02T04:39:51;102298.94;;;9.90;67.32
37298;BME280;30517;51.932;4.278;2023-02-02T04:42:34;102287.13;;;9.74;67.32
37298;BME280;30517;51.932;4.278;2023-02-02T04:45:18;102313.06;;;9.92;67.49
37298;BME280;30517;51.932;4.278;2023-02-02T04:47:58;102308.66;;;9.93;67.52
37298;BME280;30517;51.932;4.278;2023-02-02T04:50:39;102315.81;;;9.97;67.02
37298;BME280;30517;51.932;4.278;2023-02-02T04:53:20;102290.97;;;9.87;67.25
37298;BME280;30517;51.932;4.278;2023-02-02T04:56:05;102315.69;;;9.92;67.53
37298;BME280;30517;51.932;4.278;2023-02-02T04:58:47;102284.63;;;9.79;67.65
37298;BME280;30517;51.932;4.278;2023-02-02T05:01:28;102305.13;;;9.92;67.82
37298;BME280;30517;51.932;4.278;2023-02-02T05:04:10;102308.66;;;9.93;67.40
37298;BME280;30517;51.932;4.278;2023-02-02T05:06:51;102316.56;;;9.91;67.30
37298;BME280;30517;51.932;4.278;2023-02-02T05:09:32;102206.28;;;9.36;67.35
37298;BME280;30517;51.932;4.278;2023-02-02T05:12:12;102275.78;;;9.77;67.39
37298;BME280;30517;51.932;4.278;2023-02-02T05:14:53;102227.69;;;9.48;67.40
37298;BME280;30517;51.932;4.278;2023-02-02T05:17:34;102264.16;;;9.67;67.17
37298;BME280;30517;51.932;4.278;2023-02-02T05:20:15;102268.59;;;9.70;67.35
37298;BME280;30517;51.932;4.278;2023-02-02T05:22:56;102321.00;;;9.94;67.28
37298;BME280;30517;51.932;4.278;2023-02-02T05:25:36;102305.19;;;9.94;67.56
37298;BME280;30517;51.932;4.278;2023-02-02T05:28:18;102291.91;;;9.91;67.29
37298;BME280;30517;51.932;4.278;2023-02-02T05:30:58;102298.03;;;9.90;67.53
37298;BME280;30517;51.932;4.278;2023-02-02T05:33:40;102312.44;;;9.68;67.36
37298;BME280;30517;51.932;4.278;2023-02-02T05:36:21;102311.78;;;9.77;67.75
37298;BME280;30517;51.932;4.278;2023-02-02T05:39:01;102308.44;;;9.84;67.64
37298;BME280;30517;51.932;4.278;2023-02-02T05:41:44;102297.84;;;9.81;67.54
37298;BME280;30517;51.932;4.278;2023-02-02T05:44:25;102291.75;;;9.83;67.56
37298;BME280;30517;51.932;4.278;2023-02-02T05:47:05;102317.50;;;9.95;67.57
37298;BME280;30517;51.932;4.278;2023-02-02T05:49:46;102296.38;;;9.93;67.09
37298;BME280;30517;51.932;4.278;2023-02-02T05:52:28;102298.03;;;9.88;66.95
37298;BME280;30517;51.932;4.278;2023-02-02T05:55:11;102286.44;;;9.82;67.31
37298;BME280;30517;51.932;4.278;2023-02-02T05:57:52;102307.91;;;9.97;67.47
37298;BME280;30517;51.932;4.278;2023-02-02T06:00:32;102288.25;;;9.84;67.09
37298;BME280;30517;51.932;4.278;2023-02-02T06:03:13;102302.44;;;9.89;67.47
37298;BME280;30517;51.932;4.278;2023-02-02T06:05:54;102320.22;;;9.98;67.01
37298;BME280;30517;51.932;4.278;2023-02-02T06:08:35;102327.22;;;9.97;67.14
37298;BME280;30517;51.932;4.278;2023-02-02T06:11:16;102331.56;;;9.94;67.37
37298;BME280;30517;51.932;4.278;2023-02-02T06:13:57;102305.78;;;9.82;67.21
37298;BME280;30517;51.932;4.278;2023-02-02T06:16:38;102307.66;;;9.88;66.78
37298;BME280;30517;51.932;4.278;2023-02-02T06:19:19;102322.66;;;9.90;67.45
37298;BME280;30517;51.932;4.278;2023-02-02T06:22:00;102336.00;;;9.96;67.35
37298;BME280;30517;51.932;4.278;2023-02-02T06:24:40;102331.56;;;9.94;67.27
37298;BME280;30517;51.932;4.278;2023-02-02T06:27:21;102348.38;;;9.99;67.58
37298;BME280;30517;51.932;4.278;2023-02-02T06:30:02;102335.84;;;9.90;67.17
37298;BME280;30517;51.932;4.278;2023-02-02T06:32:43;102361.56;;;10.01;67.29
37298;BME280;30517;51.932;4.278;2023-02-02T06:35:24;102327.66;;;9.80;67.24
37298;BME280;30517;51.932;4.278;2023-02-02T06:38:05;102335.06;;;9.94;67.13
37298;BME280;30517;51.932;4.278;2023-02-02T06:40:46;102362.50;;;10.03;67.20
37298;BME280;30517;51.932;4.278;2023-02-02T06:43:27;102291.97;;;9.56;67.29
37298;BME280;30517;51.932;4.278;2023-02-02T06:46:08;102371.25;;;10.02;67.31
37298;BME280;30517;51.932;4.278;2023-02-02T06:48:49;102359.88;;;10.03;67.27
37298;BME280;30517;51.932;4.278;2023-02-02T06:51:30;102347.38;;;9.94;66.88
37298;BME280;30517;51.932;4.278;2023-02-02T06:54:11;102315.50;;;9.85;67.34
37298;BME280;30517;51.932;4.278;2023-02-02T06:56:51;102335.06;;;9.94;67.04
37298;BME280;30517;51.932;4.278;2023-02-02T06:59:32;102352.84;;;10.03;66.93
37298;BME280;30517;51.932;4.278;2023-02-02T07:02:13;102330.63;;;9.93;67.19
37298;BME280;30517;51.932;4.278;2023-02-02T07:04:54;102346.69;;;10.03;67.16
37298;BME280;30517;51.932;4.278;2023-02-02T07:07:34;102343.94;;;9.98;66.81
37298;BME280;30517;51.932;4.278;2023-02-02T07:10:16;102344.81;;;9.97;67.00
37298;BME280;30517;51.932;4.278;2023-02-02T07:12:57;102362.50;;;10.03;67.07
37298;BME280;30517;51.932;4.278;2023-02-02T07:15:39;102348.13;;;9.90;67.22
37298;BME280;30517;51.932;4.278;2023-02-02T07:18:19;102375.69;;;10.03;67.09
37298;BME280;30517;51.932;4.278;2023-02-02T07:21:01;102365.06;;;10.00;67.13
37298;BME280;30517;51.932;4.278;2023-02-02T07:23:42;102368.59;;;10.00;67.24
37298;BME280;30517;51.932;4.278;2023-02-02T07:26:23;102355.97;;;9.87;67.31
37298;BME280;30517;51.932;4.278;2023-02-02T07:29:04;102382.53;;;9.96;67.38
37298;BME280;30517;51.932;4.278;2023-02-02T07:31:45;102377.38;;;9.66;67.26
37298;BME280;30517;51.932;4.278;2023-02-02T07:34:26;102369.53;;;9.67;67.50
37298;BME280;30517;51.932;4.278;2023-02-02T07:37:08;102392.59;;;9.76;67.22
37298;BME280;30517;51.932;4.278;2023-02-02T07:39:49;102392.66;;;9.78;67.35
37298;BME280;30517;51.932;4.278;2023-02-02T07:42:30;102393.59;;;9.81;67.41
37298;BME280;30517;51.932;4.278;2023-02-02T07:45:11;102404.28;;;9.86;67.38
37298;BME280;30517;51.932;4.278;2023-02-02T07:47:58;102407.88;;;9.89;67.45
37298;BME280;30517;51.932;4.278;2023-02-02T07:50:39;102419.50;;;9.97;66.57
37298;BME280;30517;51.932;4.278;2023-02-02T07:53:20;102405.19;;;9.88;66.91
37298;BME280;30517;51.932;4.278;2023-02-02T07:56:09;102416.84;;;9.97;67.16
37298;BME280;30517;51.932;4.278;2023-02-02T07:58:52;102413.22;;;9.92;66.78
37298;BME280;30517;51.932;4.278;2023-02-02T08:01:33;102414.91;;;9.90;67.18
37298;BME280;30517;51.932;4.278;2023-02-02T08:04:14;102431.78;;;9.97;67.00
37298;BME280;30517;51.932;4.278;2023-02-02T08:06:56;102420.38;;;9.98;67.04
37298;BME280;30517;51.932;4.278;2023-02-02T08:09:37;102403.41;;;9.87;66.80
37298;BME280;30517;51.932;4.278;2023-02-02T08:12:18;102423.91;;;9.98;67.45
37298;BME280;30517;51.932;4.278;2023-02-02T08:15:03;102419.56;;;9.99;66.83
37298;BME280;30517;51.932;4.278;2023-02-02T08:17:44;102416.00;;;9.98;67.19
37298;BME280;30517;51.932;4.278;2023-02-02T08:20:25;102440.63;;;9.99;67.36
37298;BME280;30517;51.932;4.278;2023-02-02T08:23:06;102404.97;;;9.80;66.65
37298;BME280;30517;51.932;4.278;2023-02-02T08:25:53;102433.56;;;9.98;67.15
37298;BME280;30517;51.932;4.278;2023-02-02T08:28:35;102418.16;;;9.80;66.99
37298;BME280;30517;51.932;4.278;2023-02-02T08:31:20;102432.69;;;9.97;66.96
37298;BME280;30517;51.932;4.278;2023-02-02T08:34:01;102397.72;;;9.70;67.07
37298;BME280;30517;51.932;4.278;2023-02-02T08:36:42;102454.66;;;9.98;67.28
37298;BME280;30517;51.932;4.278;2023-02-02T08:39:23;102430.50;;;9.81;67.33
37298;BME280;30517;51.932;4.278;2023-02-02T08:42:04;102444.78;;;9.91;67.39
37298;BME280;30517;51.932;4.278;2023-02-02T08:44:44;102454.66;;;9.98;67.67
37298;BME280;30517;51.932;4.278;2023-02-02T08:47:29;102441.19;;;9.87;67.07
37298;BME280;30517;51.932;4.278;2023-02-02T08:50:10;102455.53;;;9.98;67.13
37298;BME280;30517;51.932;4.278;2023-02-02T08:52:51;102419.88;;;9.78;66.97
37298;BME280;30517;51.932;4.278;2023-02-02T08:55:32;102438.41;;;9.81;67.37
37298;BME280;30517;51.932;4.278;2023-02-02T08:58:13;102411.72;;;9.69;66.80
37298;BME280;30517;51.932;4.278;2023-02-02T09:00:54;102461.63;;;9.96;67.44
37298;BME280;30517;51.932;4.278;2023-02-02T09:03:43;102453.47;;;9.87;67.47
37298;BME280;30517;51.932;4.278;2023-02-02T09:06:35;102484.50;;;9.97;67.24
37298;BME280;30517;51.932;4.278;2023-02-02T09:09:17;102469.44;;;9.91;67.56
37298;BME280;30517;51.932;4.278;2023-02-02T09:11:57;102483.63;;;9.96;67.11
37298;BME280;30517;51.932;4.278;2023-02-02T09:14:38;102489.72;;;9.94;67.46
37298;BME280;30517;51.932;4.278;2023-02-02T09:17:19;102489.78;;;9.97;67.12
37298;BME280;30517;51.932;4.278;2023-02-02T09:20:01;102492.41;;;9.97;67.21
37298;BME280;30517;51.932;4.278;2023-02-02T09:22:42;102479.16;;;9.94;67.61
37298;BME280;30517;51.932;4.278;2023-02-02T09:25:24;102491.56;;;9.98;67.44
37298;BME280;30517;51.932;4.278;2023-02-02T09:28:06;102465.72;;;9.85;67.44
37298;BME280;30517;51.932;4.278;2023-02-02T09:30:47;102495.06;;;9.98;67.02
37298;BME280;30517;51.932;4.278;2023-02-02T09:33:28;102488.91;;;9.98;67.36
37298;BME280;30517;51.932;4.278;2023-02-02T09:36:11;102502.78;;;9.91;67.34
37298;BME280;30517;51.932;4.278;2023-02-02T09:38:53;102495.81;;;9.93;67.17
37298;BME280;30517;51.932;4.278;2023-02-02T09:56:05;102502.06;;;9.96;67.69
37298;BME280;30517;51.932;4.278;2023-02-02T09:58:51;102499.44;;;9.96;67.68
37298;BME280;30517;51.932;4.278;2023-02-02T10:01:34;102496.81;;;9.98;67.56
37298;BME280;30517;51.932;4.278;2023-02-02T10:04:36;102487.88;;;9.91;67.55
37298;BME280;30517;51.932;4.278;2023-02-02T10:07:24;102492.28;;;9.92;67.32
37298;BME280;30517;51.932;4.278;2023-02-02T10:10:22;102473.47;;;9.79;67.53
37298;BME280;30517;51.932;4.278;2023-02-02T10:13:23;102509.19;;;9.99;67.63
37298;BME280;30517;51.932;4.278;2023-02-02T10:16:08;102501.13;;;9.94;67.60
37298;BME280;30517;51.932;4.278;2023-02-02T10:18:58;102487.75;;;9.87;67.56
37298;BME280;30517;51.932;4.278;2023-02-02T10:21:50;102468.13;;;9.75;68.03
37298;BME280;30517;51.932;4.278;2023-02-02T10:24:33;102498.53;;;9.96;67.74
37298;BME280;30517;51.932;4.278;2023-02-02T10:27:19;102496.81;;;9.98;67.80
37298;BME280;30517;51.932;4.278;2023-02-02T10:31:16;102506.44;;;9.96;67.69
37298;BME280;30517;51.932;4.278;2023-02-02T10:33:35;102510.88;;;9.97;67.76
37298;BME280;30517;51.932;4.278;2023-02-02T10:36:31;102520.53;;;9.96;67.66
37298;BME280;30517;51.932;4.278;2023-02-02T10:39:27;102510.66;;;9.89;67.88
37298;BME280;30517;51.932;4.278;2023-02-02T10:45:21;102549.75;;;10.06;67.74
37298;BME280;30517;51.932;4.278;2023-02-02T10:48:04;102541.81;;;10.04;67.95
37298;BME280;30517;51.932;4.278;2023-02-02T10:50:55;102531.97;;;9.97;68.08
37298;BME280;30517;51.932;4.278;2023-02-02T10:53:37;102546.25;;;10.05;68.25
37298;BME280;30517;51.932;4.278;2023-02-02T10:56:33;102540.88;;;10.02;68.24
37298;BME280;30517;51.932;4.278;2023-02-02T10:59:23;102533.88;;;10.04;67.72
37298;BME280;30517;51.932;4.278;2023-02-02T11:02:10;102530.38;;;10.04;68.25
37298;BME280;30517;51.932;4.278;2023-02-02T11:04:51;102518.81;;;9.98;68.09
37298;BME280;30517;51.932;4.278;2023-02-02T11:07:52;102525.00;;;10.01;68.35
37298;BME280;30517;51.932;4.278;2023-02-02T11:10:34;102546.25;;;10.07;68.10
37298;BME280;30517;51.932;4.278;2023-02-02T11:13:20;102508.91;;;9.90;68.07
37298;BME280;30517;51.932;4.278;2023-02-02T11:18:54;102541.00;;;10.07;68.30
37298;BME280;30517;51.932;4.278;2023-02-02T11:21:37;102545.53;;;10.12;68.69
37298;BME280;30517;51.932;4.278;2023-02-02T11:24:30;102542.06;;;10.13;68.44
37298;BME280;30517;51.932;4.278;2023-02-02T11:27:18;102531.44;;;10.10;68.23
37298;BME280;30517;51.932;4.278;2023-02-02T11:30:11;102541.28;;;10.17;68.42
37298;BME280;30517;51.932;4.278;2023-02-02T11:33:30;102542.22;;;10.19;68.17
37298;BME280;30517;51.932;4.278;2023-02-02T11:36:20;102503.72;;;9.93;67.97
37298;BME280;30517;51.932;4.278;2023-02-02T11:39:15;102543.16;;;10.22;68.46
37298;BME280;30517;51.932;4.278;2023-02-02T11:42:11;102546.75;;;10.24;68.54
37298;BME280;30517;51.932;4.278;2023-02-02T11:44:56;102516.44;;;10.09;68.54
37298;BME280;30517;51.932;4.278;2023-02-02T11:47:38;102541.53;;;10.27;68.50
37298;BME280;30517;51.932;4.278;2023-02-02T11:50:25;102530.81;;;10.20;68.54
37298;BME280;30517;51.932;4.278;2023-02-02T11:53:20;102500.47;;;10.03;68.71
37298;BME280;30517;51.932;4.278;2023-02-02T11:56:16;102518.41;;;10.16;68.30
37298;BME280;30517;51.932;4.278;2023-02-02T11:58:58;102516.72;;;10.18;68.46
37298;BME280;30517;51.932;4.278;2023-02-02T12:01:42;102542.28;;;10.23;68.41
37298;BME280;30517;51.932;4.278;2023-02-02T12:04:23;102537.22;;;10.29;68.24
37298;BME280;30517;51.932;4.278;2023-02-02T12:07:24;102528.47;;;10.30;68.49
37298;BME280;30517;51.932;4.278;2023-02-02T12:10:39;102529.34;;;10.30;68.60
37298;BME280;30517;51.932;4.278;2023-02-02T12:13:28;102520.63;;;10.33;68.76
37298;BME280;30517;51.932;4.278;2023-02-02T12:16:49;102516.97;;;10.28;68.17
37298;BME280;30517;51.932;4.278;2023-02-02T12:20:00;102533.06;;;10.37;68.39
37298;BME280;30517;51.932;4.278;2023-02-02T12:26:02;102538.31;;;10.37;68.33
37298;BME280;30517;51.932;4.278;2023-02-02T12:29:04;102530.09;;;10.26;68.35
37298;BME280;30517;51.932;4.278;2023-02-02T12:32:10;102535.56;;;10.32;68.90
37298;BME280;30517;51.932;4.278;2023-02-02T12:35:26;102539.13;;;10.34;69.28
37298;BME280;30517;51.932;4.278;2023-02-02T12:47:25;102544.69;;;10.45;68.93
37298;BME280;30517;51.932;4.278;2023-02-02T13:07:57;102517.44;;;10.46;68.59
37298;BME280;30517;51.932;4.278;2023-02-02T13:10:45;102519.22;;;10.47;68.50
37298;BME280;30517;51.932;4.278;2023-02-02T13:13:32;102507.72;;;10.44;68.81
37298;BME280;30517;51.932;4.278;2023-02-02T13:16:16;102471.16;;;10.24;68.74
37298;BME280;30517;51.932;4.278;2023-02-02T13:19:04;102500.56;;;10.39;68.63
37298;BME280;30517;51.932;4.278;2023-02-02T13:21:46;102494.38;;;10.37;68.81
37298;BME280;30517;51.932;4.278;2023-02-02T13:24:35;102514.00;;;10.50;68.56
37298;BME280;30517;51.932;4.278;2023-02-02T13:27:19;102521.97;;;10.52;68.56
37298;BME280;30517;51.932;4.278;2023-02-02T13:30:04;102500.66;;;10.43;68.36
37298;BME280;30517;51.932;4.278;2023-02-02T13:32:51;102505.94;;;10.44;68.64
37298;BME280;30517;51.932;4.278;2023-02-02T13:35:51;102515.81;;;10.51;68.42
37298;BME280;30517;51.932;4.278;2023-02-02T13:38:33;102524.66;;;10.53;68.33
37298;BME280;30517;51.932;4.278;2023-02-02T13:41:18;102478.28;;;10.28;68.39
37298;BME280;30517;51.932;4.278;2023-02-02T13:44:19;102484.50;;;10.30;68.31
37298;BME280;30517;51.932;4.278;2023-02-02T13:47:11;102522.88;;;10.52;68.32
37298;BME280;30517;51.932;4.278;2023-02-02T13:50:02;102520.22;;;10.52;68.34
37298;BME280;30517;51.932;4.278;2023-02-02T13:53:07;102522.88;;;10.52;68.17
37298;BME280;30517;51.932;4.278;2023-02-02T13:56:08;102320.91;;;9.21;68.30
37298;BME280;30517;51.932;4.278;2023-02-02T14:01:56;102528.13;;;10.52;68.08
37298;BME280;30517;51.932;4.278;2023-02-02T14:04:38;102393.28;;;9.69;68.15
37298;BME280;30517;51.932;4.278;2023-02-02T14:07:25;102503.25;;;10.41;68.64
37298;BME280;30517;51.932;4.278;2023-02-02T14:10:22;102456.69;;;10.08;68.39
37298;BME280;30517;51.932;4.278;2023-02-02T14:16:44;102531.66;;;10.53;68.08
37298;BME280;30517;51.932;4.278;2023-02-02T14:24:53;102520.22;;;10.51;68.28
37298;BME280;30517;51.932;4.278;2023-02-02T14:27:53;102514.53;;;10.35;68.17
37298;BME280;30517;51.932;4.278;2023-02-02T14:30:36;102547.50;;;10.53;68.26
37298;BME280;30517;51.932;4.278;2023-02-02T14:33:24;102524.47;;;10.46;68.25
37298;BME280;30517;51.932;4.278;2023-02-02T14:36:12;102543.09;;;10.52;68.36
37298;BME280;30517;51.932;4.278;2023-02-02T14:39:07;102530.56;;;10.43;68.42
37298;BME280;30517;51.932;4.278;2023-02-02T14:42:00;102523.47;;;10.40;67.94
37298;BME280;30517;51.932;4.278;2023-02-02T14:50:52;102538.50;;;10.45;68.07
37298;BME280;30517;51.932;4.278;2023-02-02T14:53:38;102548.22;;;10.46;68.25
37298;BME280;30517;51.932;4.278;2023-02-02T14:56:41;102522.50;;;10.37;67.86
37298;BME280;30517;51.932;4.278;2023-02-02T14:59:33;102519.81;;;10.35;68.32
37298;BME280;30517;51.932;4.278;2023-02-02T15:02:22;102545.66;;;10.50;68.20
37298;BME280;30517;51.932;4.278;2023-02-02T15:08:26;102541.25;;;10.48;68.16
37298;BME280;30517;51.932;4.278;2023-02-02T15:11:08;102534.91;;;10.41;68.01
37298;BME280;30517;51.932;4.278;2023-02-02T15:14:12;102542.16;;;10.50;68.21
37298;BME280;30517;51.932;4.278;2023-02-02T15:16:54;102527.06;;;10.44;68.12
37298;BME280;30517;51.932;4.278;2023-02-02T15:19:40;102543.09;;;10.52;68.21
37298;BME280;30517;51.932;4.278;2023-02-02T15:25:26;102543.91;;;10.49;68.34
37298;BME280;30517;51.932;4.278;2023-02-02T15:28:37;102271.81;;;8.90;68.20
37298;BME280;30517;51.932;4.278;2023-02-02T15:34:19;102550.81;;;10.44;68.27
37298;BME280;30517;51.932;4.278;2023-02-02T15:37:04;102525.00;;;10.32;68.17
37298;BME280;30517;51.932;4.278;2023-02-02T15:39:50;102538.47;;;10.43;68.35
37298;BME280;30517;51.932;4.278;2023-02-02T15:42:43;102556.16;;;10.47;68.28
37298;BME280;30517;51.932;4.278;2023-02-02T15:45:41;102573.72;;;10.47;67.64
37298;BME280;30517;51.932;4.278;2023-02-02T15:48:29;102555.19;;;10.44;68.40
37298;BME280;30517;51.932;4.278;2023-02-02T15:51:17;102565.88;;;10.48;68.26
37298;BME280;30517;51.932;4.278;2023-02-02T15:54:01;102540.91;;;10.35;68.03
37298;BME280;30517;51.932;4.278;2023-02-02T15:56:41;102563.84;;;10.38;68.72
37298;BME280;30517;51.932;4.278;2023-02-02T15:59:24;102536.00;;;10.17;69.28
37298;BME280;30517;51.932;4.278;2023-02-02T16:04:46;102537.19;;;10.27;68.79
37298;BME280;30517;51.932;4.278;2023-02-02T16:07:30;102566.63;;;10.44;68.89
37298;BME280;30517;51.932;4.278;2023-02-02T16:10:17;102573.88;;;10.53;68.58
37298;BME280;30517;51.932;4.278;2023-02-02T16:12:58;102580.09;;;10.55;68.64